X  CloseMetar Aviation Weather Data     KLNK Lincoln

Temperature

43°F Temperature

34°F Dewpoint

71% Humidity



Wind

 3 MPH

 5 KM/H

 1 M/S

 3 KTS



270°
Due West
Current Conditions

Overcast Overcast
Pressure 1011.82 (hPa) - 29.88 (in)
Visibility 10 (mi) - 16.1 (km)
Airport
Airport-code KLNK

Location Lincoln 7 (mi)

Metar:
KLNK 170654Z AUTO 27003KT 10SM OVC080 06/01 A2988 RMK AO2 SLP122 T00560006

Time: 17-02-2020 12:54